Airfield :
LOGIN :

Register | Disclaimer

   EN    FR    IT 

 










Legend :    VFR   Marginal VFR   IFR   Intensive IFR   Very Intensive IFR
Visi :
Ceiling :
>= 8 km
>= 3000ft
5 to 8 km
1000 to 3000 ft
1500m to 5 km
500 to 1000 ft
800 to 1500m
200 to 500 ft
< 800m
< 200 ft
Symbols :   Thunderstorms  Fog  Heavy snow  Heavy precipitations  Wind > 20 kt
SIGMETs :     Misc.  Thunderstorms  Icing  Turbulence  Mountain Waves  Volcanic Ashes







- Airport Elevation : 74 ft
- IATA code : EIN


EHEH - Eindhoven

CURRENT METAR :
  • 251825Z AUTO VRB01KT 9999 NCD 09/06 Q1037 BLU VRB03KT CAVOK

EXPIRED METARs :
  • 251755Z AUTO 15003KT 120V190 9999 SCT300 11/06 Q1037 BLU 15003KT CAVOK
  • 251725Z AUTO 14003KT 110V190 9999 NCD 13/05 Q1037 BLU 16004KT 9999 SCT045
  • 251655Z AUTO VRB02KT 9999 NCD 15/05 Q1037 BLU 16004KT 9999 SCT045
  • 251625Z AUTO VRB02KT 9999 OVC044 15/05 Q1037 BLU 16004KT 9999 SCT045
  • 251555Z AUTO 21006KT 080V230 9999 SCT047 OVC300 15/05 Q1037 BLU 13004KT 9999 SCT048

TAF TAF EHEH
Valid from the 25 at 18:00 until the 27 at 00:00 UTC


251739Z 2518/2624 13003KT CAVOK
BECMG 2603/2606 19005KT
No reported NOTAMs for that airfield.



MET'MAP, your aeronautical weather chart ! - Copyright ORBIFLY December 2007 - Disclaimer

ORBIFLY MET'MAP TEAM :

Programming & Development : Alexandra Zaïnal
Concept & Development : Baudouin d'Aumeries
Co-Development & Prog : Marc-Olivier Méhu
Technical & hardware support : Manuel Goepfert

Contact : metmap@orbifly.com




SOURCES & CREDITS :

   NOAA